sensor_id;sensor_type;location;lat;lon;timestamp;temperature;humidity
39255;DHT22;24957;51.386;-2.352;2022-08-01T00:02:10;18.80;99.90
39255;DHT22;24957;51.386;-2.352;2022-08-01T00:04:36;18.80;99.90
39255;DHT22;24957;51.386;-2.352;2022-08-01T00:07:01;18.80;99.90
39255;DHT22;24957;51.386;-2.352;2022-08-01T00:09:27;18.80;99.90
39255;DHT22;24957;51.386;-2.352;2022-08-01T00:11:52;18.90;99.90
39255;DHT22;24957;51.386;-2.352;2022-08-01T00:14:18;19.00;99.90
39255;DHT22;24957;51.386;-2.352;2022-08-01T00:16:43;18.80;99.90
39255;DHT22;24957;51.386;-2.352;2022-08-01T00:19:09;18.80;99.90
39255;DHT22;24957;51.386;-2.352;2022-08-01T00:21:34;18.90;99.90
39255;DHT22;24957;51.386;-2.352;2022-08-01T00:24:00;19.00;99.90
39255;DHT22;24957;51.386;-2.352;2022-08-01T00:26:25;19.00;99.90
39255;DHT22;24957;51.386;-2.352;2022-08-01T00:28:51;18.90;99.90
39255;DHT22;24957;51.386;-2.352;2022-08-01T00:31:17;18.80;99.90
39255;DHT22;24957;51.386;-2.352;2022-08-01T00:33:42;18.70;99.90
39255;DHT22;24957;51.386;-2.352;2022-08-01T00:36:08;18.80;99.90
39255;DHT22;24957;51.386;-2.352;2022-08-01T00:38:33;18.80;99.90
39255;DHT22;24957;51.386;-2.352;2022-08-01T00:40:59;18.80;99.90
39255;DHT22;24957;51.386;-2.352;2022-08-01T00:43:24;18.80;99.90
39255;DHT22;24957;51.386;-2.352;2022-08-01T00:45:50;18.80;99.90
39255;DHT22;24957;51.386;-2.352;2022-08-01T00:48:16;18.90;99.90
39255;DHT22;24957;51.386;-2.352;2022-08-01T00:50:41;18.90;99.90
39255;DHT22;24957;51.386;-2.352;2022-08-01T00:53:07;18.90;99.90
39255;DHT22;24957;51.386;-2.352;2022-08-01T00:55:33;18.80;99.90
39255;DHT22;24957;51.386;-2.352;2022-08-01T00:57:58;18.90;99.90
39255;DHT22;24957;51.386;-2.352;2022-08-01T01:00:24;18.90;99.90
39255;DHT22;24957;51.386;-2.352;2022-08-01T01:02:50;18.80;99.90
39255;DHT22;24957;51.386;-2.352;2022-08-01T01:05:15;18.70;99.90
39255;DHT22;24957;51.386;-2.352;2022-08-01T01:07:48;18.80;99.90
39255;DHT22;24957;51.386;-2.352;2022-08-01T01:12:59;18.80;99.90
39255;DHT22;24957;51.386;-2.352;2022-08-01T01:15:34;18.80;99.90
39255;DHT22;24957;51.386;-2.352;2022-08-01T01:20:56;18.90;99.90
39255;DHT22;24957;51.386;-2.352;2022-08-01T01:26:15;18.70;99.90
39255;DHT22;24957;51.386;-2.352;2022-08-01T01:31:14;18.40;99.90
39255;DHT22;24957;51.386;-2.352;2022-08-01T01:33:40;18.40;99.90
39255;DHT22;24957;51.386;-2.352;2022-08-01T01:36:07;18.30;99.90
39255;DHT22;24957;51.386;-2.352;2022-08-01T01:38:34;18.30;99.90
39255;DHT22;24957;51.386;-2.352;2022-08-01T01:41:01;18.30;99.90
39255;DHT22;24957;51.386;-2.352;2022-08-01T01:43:27;18.20;99.90
39255;DHT22;24957;51.386;-2.352;2022-08-01T01:45:54;18.20;99.90
39255;DHT22;24957;51.386;-2.352;2022-08-01T01:48:20;18.20;99.90
39255;DHT22;24957;51.386;-2.352;2022-08-01T01:50:46;18.10;99.90
39255;DHT22;24957;51.386;-2.352;2022-08-01T01:53:13;18.10;99.90
39255;DHT22;24957;51.386;-2.352;2022-08-01T01:55:39;18.00;99.90
39255;DHT22;24957;51.386;-2.352;2022-08-01T01:58:06;18.00;99.90
39255;DHT22;24957;51.386;-2.352;2022-08-01T02:00:32;18.10;99.90
39255;DHT22;24957;51.386;-2.352;2022-08-01T02:02:58;18.20;99.90
39255;DHT22;24957;51.386;-2.352;2022-08-01T02:05:26;18.30;99.90
39255;DHT22;24957;51.386;-2.352;2022-08-01T02:07:53;18.10;99.90
39255;DHT22;24957;51.386;-2.352;2022-08-01T02:10:19;18.00;99.90
39255;DHT22;24957;51.386;-2.352;2022-08-01T02:12:44;17.90;99.90
39255;DHT22;24957;51.386;-2.352;2022-08-01T02:15:11;17.80;99.90
39255;DHT22;24957;51.386;-2.352;2022-08-01T02:17:39;17.70;99.90
39255;DHT22;24957;51.386;-2.352;2022-08-01T02:20:06;17.70;99.90
39255;DHT22;24957;51.386;-2.352;2022-08-01T02:22:33;17.60;99.90
39255;DHT22;24957;51.386;-2.352;2022-08-01T02:27:42;17.50;99.90
39255;DHT22;24957;51.386;-2.352;2022-08-01T02:30:10;17.50;99.90
39255;DHT22;24957;51.386;-2.352;2022-08-01T02:32:44;17.70;99.90
39255;DHT22;24957;51.386;-2.352;2022-08-01T02:35:13;17.60;99.90
39255;DHT22;24957;51.386;-2.352;2022-08-01T02:37:39;17.60;99.90
39255;DHT22;24957;51.386;-2.352;2022-08-01T02:40:06;17.50;99.90
39255;DHT22;24957;51.386;-2.352;2022-08-01T02:42:33;17.40;99.90
39255;DHT22;24957;51.386;-2.352;2022-08-01T02:45:00;17.30;99.90
39255;DHT22;24957;51.386;-2.352;2022-08-01T02:47:27;17.20;99.90
39255;DHT22;24957;51.386;-2.352;2022-08-01T02:49:54;17.20;99.90
39255;DHT22;24957;51.386;-2.352;2022-08-01T02:52:20;17.30;99.90
39255;DHT22;24957;51.386;-2.352;2022-08-01T02:54:48;17.30;99.90
39255;DHT22;24957;51.386;-2.352;2022-08-01T02:57:14;17.20;99.90
39255;DHT22;24957;51.386;-2.352;2022-08-01T02:59:40;17.10;99.90
39255;DHT22;24957;51.386;-2.352;2022-08-01T03:02:06;17.00;99.90
39255;DHT22;24957;51.386;-2.352;2022-08-01T03:04:34;17.00;99.90
39255;DHT22;24957;51.386;-2.352;2022-08-01T03:07:02;17.00;99.90
39255;DHT22;24957;51.386;-2.352;2022-08-01T03:09:28;16.90;99.90
39255;DHT22;24957;51.386;-2.352;2022-08-01T03:11:55;16.90;99.90
39255;DHT22;24957;51.386;-2.352;2022-08-01T03:14:22;17.00;99.90
39255;DHT22;24957;51.386;-2.352;2022-08-01T03:16:49;16.90;99.90
39255;DHT22;24957;51.386;-2.352;2022-08-01T03:19:15;16.80;99.90
39255;DHT22;24957;51.386;-2.352;2022-08-01T03:21:41;16.80;99.90
39255;DHT22;24957;51.386;-2.352;2022-08-01T03:24:08;16.80;99.90
39255;DHT22;24957;51.386;-2.352;2022-08-01T03:26:35;16.80;99.90
39255;DHT22;24957;51.386;-2.352;2022-08-01T03:29:03;16.80;99.90
39255;DHT22;24957;51.386;-2.352;2022-08-01T03:31:32;17.00;99.90
39255;DHT22;24957;51.386;-2.352;2022-08-01T03:34:00;17.20;99.90
39255;DHT22;24957;51.386;-2.352;2022-08-01T03:36:26;17.20;99.90
39255;DHT22;24957;51.386;-2.352;2022-08-01T03:38:55;17.30;99.90
39255;DHT22;24957;51.386;-2.352;2022-08-01T03:41:22;17.40;99.90
39255;DHT22;24957;51.386;-2.352;2022-08-01T03:43:52;17.60;99.90
39255;DHT22;24957;51.386;-2.352;2022-08-01T03:46:21;17.70;99.90
39255;DHT22;24957;51.386;-2.352;2022-08-01T03:48:48;17.90;99.90
39255;DHT22;24957;51.386;-2.352;2022-08-01T03:51:14;17.90;99.90
39255;DHT22;24957;51.386;-2.352;2022-08-01T03:53:41;17.90;99.90
39255;DHT22;24957;51.386;-2.352;2022-08-01T03:56:07;17.70;99.90
39255;DHT22;24957;51.386;-2.352;2022-08-01T03:58:34;17.50;99.90
39255;DHT22;24957;51.386;-2.352;2022-08-01T04:01:00;17.50;99.90
39255;DHT22;24957;51.386;-2.352;2022-08-01T04:03:26;17.30;99.90
39255;DHT22;24957;51.386;-2.352;2022-08-01T04:05:52;17.20;99.90
39255;DHT22;24957;51.386;-2.352;2022-08-01T04:08:17;17.20;99.90
39255;DHT22;24957;51.386;-2.352;2022-08-01T04:10:43;17.20;99.90
39255;DHT22;24957;51.386;-2.352;2022-08-01T04:13:08;17.10;99.90
39255;DHT22;24957;51.386;-2.352;2022-08-01T04:15:34;17.20;99.90
39255;DHT22;24957;51.386;-2.352;2022-08-01T04:18:00;17.40;99.90
39255;DHT22;24957;51.386;-2.352;2022-08-01T04:20:25;17.40;99.90
39255;DHT22;24957;51.386;-2.352;2022-08-01T04:22:51;17.30;99.90
39255;DHT22;24957;51.386;-2.352;2022-08-01T04:25:26;17.20;99.90
39255;DHT22;24957;51.386;-2.352;2022-08-01T04:27:53;17.30;99.90
39255;DHT22;24957;51.386;-2.352;2022-08-01T04:30:20;17.10;99.90
39255;DHT22;24957;51.386;-2.352;2022-08-01T04:32:47;17.20;99.90
39255;DHT22;24957;51.386;-2.352;2022-08-01T04:35:15;17.10;99.90
39255;DHT22;24957;51.386;-2.352;2022-08-01T04:37:42;17.10;99.90
39255;DHT22;24957;51.386;-2.352;2022-08-01T04:40:10;17.10;99.90
39255;DHT22;24957;51.386;-2.352;2022-08-01T04:42:36;17.10;99.90
39255;DHT22;24957;51.386;-2.352;2022-08-01T04:45:01;17.10;99.90
39255;DHT22;24957;51.386;-2.352;2022-08-01T04:47:27;17.20;99.90
39255;DHT22;24957;51.386;-2.352;2022-08-01T04:49:55;17.10;99.90
39255;DHT22;24957;51.386;-2.352;2022-08-01T04:52:22;17.20;99.90
39255;DHT22;24957;51.386;-2.352;2022-08-01T04:54:47;17.30;99.90
39255;DHT22;24957;51.386;-2.352;2022-08-01T04:57:13;17.30;99.90
39255;DHT22;24957;51.386;-2.352;2022-08-01T04:59:43;17.50;99.90
39255;DHT22;24957;51.386;-2.352;2022-08-01T05:02:10;17.50;99.90
39255;DHT22;24957;51.386;-2.352;2022-08-01T05:04:35;17.40;99.90
39255;DHT22;24957;51.386;-2.352;2022-08-01T05:07:02;17.60;99.90
39255;DHT22;24957;51.386;-2.352;2022-08-01T05:09:28;17.70;99.90
39255;DHT22;24957;51.386;-2.352;2022-08-01T05:11:53;17.80;99.90
39255;DHT22;24957;51.386;-2.352;2022-08-01T05:14:19;17.80;99.90
39255;DHT22;24957;51.386;-2.352;2022-08-01T05:16:45;17.70;99.90
39255;DHT22;24957;51.386;-2.352;2022-08-01T05:19:11;17.70;99.90
39255;DHT22;24957;51.386;-2.352;2022-08-01T05:21:36;17.80;99.90
39255;DHT22;24957;51.386;-2.352;2022-08-01T05:24:03;17.70;99.90
39255;DHT22;24957;51.386;-2.352;2022-08-01T05:26:29;17.80;99.90
39255;DHT22;24957;51.386;-2.352;2022-08-01T05:28:54;17.80;99.90
39255;DHT22;24957;51.386;-2.352;2022-08-01T05:31:20;17.80;99.90
39255;DHT22;24957;51.386;-2.352;2022-08-01T05:33:45;17.80;99.90
39255;DHT22;24957;51.386;-2.352;2022-08-01T05:36:11;17.90;99.90
39255;DHT22;24957;51.386;-2.352;2022-08-01T05:38:36;18.10;99.90
39255;DHT22;24957;51.386;-2.352;2022-08-01T05:41:02;18.10;99.90
39255;DHT22;24957;51.386;-2.352;2022-08-01T05:43:28;18.20;99.90
39255;DHT22;24957;51.386;-2.352;2022-08-01T05:45:53;18.20;99.90
39255;DHT22;24957;51.386;-2.352;2022-08-01T05:48:19;18.10;99.90
39255;DHT22;24957;51.386;-2.352;2022-08-01T05:50:44;18.00;99.90
39255;DHT22;24957;51.386;-2.352;2022-08-01T05:53:10;18.00;99.90
39255;DHT22;24957;51.386;-2.352;2022-08-01T05:55:35;17.90;99.90
39255;DHT22;24957;51.386;-2.352;2022-08-01T05:58:02;18.00;99.90
39255;DHT22;24957;51.386;-2.352;2022-08-01T06:00:27;18.00;99.90
39255;DHT22;24957;51.386;-2.352;2022-08-01T06:02:53;18.00;99.90
39255;DHT22;24957;51.386;-2.352;2022-08-01T06:05:19;18.00;99.90
39255;DHT22;24957;51.386;-2.352;2022-08-01T06:07:44;18.10;99.90
39255;DHT22;24957;51.386;-2.352;2022-08-01T06:10:10;18.10;99.90
39255;DHT22;24957;51.386;-2.352;2022-08-01T06:12:36;18.20;99.90
39255;DHT22;24957;51.386;-2.352;2022-08-01T06:15:02;18.20;99.90
39255;DHT22;24957;51.386;-2.352;2022-08-01T06:17:27;18.20;99.90
39255;DHT22;24957;51.386;-2.352;2022-08-01T06:19:53;18.20;99.90
39255;DHT22;24957;51.386;-2.352;2022-08-01T06:22:18;18.40;99.90
39255;DHT22;24957;51.386;-2.352;2022-08-01T06:24:44;18.30;99.90
39255;DHT22;24957;51.386;-2.352;2022-08-01T06:27:10;18.30;99.70
39255;DHT22;24957;51.386;-2.352;2022-08-01T06:29:35;18.30;97.40
39255;DHT22;24957;51.386;-2.352;2022-08-01T06:32:01;18.20;96.20
39255;DHT22;24957;51.386;-2.352;2022-08-01T06:34:26;18.10;98.40
39255;DHT22;24957;51.386;-2.352;2022-08-01T06:36:52;18.20;97.30
39255;DHT22;24957;51.386;-2.352;2022-08-01T06:39:17;18.20;96.50
39255;DHT22;24957;51.386;-2.352;2022-08-01T06:41:43;18.20;96.40
39255;DHT22;24957;51.386;-2.352;2022-08-01T06:44:11;18.30;95.40
39255;DHT22;24957;51.386;-2.352;2022-08-01T06:46:37;18.50;95.80
39255;DHT22;24957;51.386;-2.352;2022-08-01T06:49:03;18.60;94.40
39255;DHT22;24957;51.386;-2.352;2022-08-01T06:51:28;18.60;93.40
39255;DHT22;24957;51.386;-2.352;2022-08-01T06:53:54;18.60;94.20
39255;DHT22;24957;51.386;-2.352;2022-08-01T06:56:20;18.70;93.50
39255;DHT22;24957;51.386;-2.352;2022-08-01T06:58:45;18.80;93.50
39255;DHT22;24957;51.386;-2.352;2022-08-01T07:01:11;18.90;92.90
39255;DHT22;24957;51.386;-2.352;2022-08-01T07:03:37;18.90;92.10
39255;DHT22;24957;51.386;-2.352;2022-08-01T07:06:03;19.00;92.00
39255;DHT22;24957;51.386;-2.352;2022-08-01T07:08:28;19.10;90.80
39255;DHT22;24957;51.386;-2.352;2022-08-01T07:10:54;19.00;90.20
39255;DHT22;24957;51.386;-2.352;2022-08-01T07:13:21;19.00;88.70
39255;DHT22;24957;51.386;-2.352;2022-08-01T07:15:50;19.10;89.20
39255;DHT22;24957;51.386;-2.352;2022-08-01T07:18:15;19.10;88.30
39255;DHT22;24957;51.386;-2.352;2022-08-01T07:20:41;19.00;88.50
39255;DHT22;24957;51.386;-2.352;2022-08-01T07:23:06;19.00;90.00
39255;DHT22;24957;51.386;-2.352;2022-08-01T07:25:32;19.10;86.90
39255;DHT22;24957;51.386;-2.352;2022-08-01T07:27:58;19.10;87.00
39255;DHT22;24957;51.386;-2.352;2022-08-01T07:30:23;19.30;87.20
39255;DHT22;24957;51.386;-2.352;2022-08-01T07:32:49;19.40;87.10
39255;DHT22;24957;51.386;-2.352;2022-08-01T07:35:14;19.50;85.10
39255;DHT22;24957;51.386;-2.352;2022-08-01T07:37:40;19.50;85.30
39255;DHT22;24957;51.386;-2.352;2022-08-01T07:40:06;19.50;85.00
39255;DHT22;24957;51.386;-2.352;2022-08-01T07:42:32;19.40;84.60
39255;DHT22;24957;51.386;-2.352;2022-08-01T07:44:57;19.30;84.70
39255;DHT22;24957;51.386;-2.352;2022-08-01T07:47:23;19.30;84.50
39255;DHT22;24957;51.386;-2.352;2022-08-01T07:49:49;19.40;86.20
39255;DHT22;24957;51.386;-2.352;2022-08-01T07:52:15;19.50;87.90
39255;DHT22;24957;51.386;-2.352;2022-08-01T07:54:40;19.50;86.70
39255;DHT22;24957;51.386;-2.352;2022-08-01T07:57:06;19.40;84.80
39255;DHT22;24957;51.386;-2.352;2022-08-01T07:59:32;19.20;85.00
39255;DHT22;24957;51.386;-2.352;2022-08-01T08:01:58;19.00;85.90
39255;DHT22;24957;51.386;-2.352;2022-08-01T08:04:24;19.10;86.00
39255;DHT22;24957;51.386;-2.352;2022-08-01T08:06:49;19.20;85.10
39255;DHT22;24957;51.386;-2.352;2022-08-01T08:09:15;19.30;85.40
39255;DHT22;24957;51.386;-2.352;2022-08-01T08:11:41;19.40;84.10
39255;DHT22;24957;51.386;-2.352;2022-08-01T08:14:07;19.50;83.10
39255;DHT22;24957;51.386;-2.352;2022-08-01T08:16:33;19.50;82.40
39255;DHT22;24957;51.386;-2.352;2022-08-01T08:18:58;19.50;82.40
39255;DHT22;24957;51.386;-2.352;2022-08-01T08:21:24;19.40;83.70
39255;DHT22;24957;51.386;-2.352;2022-08-01T08:23:49;19.50;83.90
39255;DHT22;24957;51.386;-2.352;2022-08-01T08:26:34;19.50;82.60
39255;DHT22;24957;51.386;-2.352;2022-08-01T08:28:59;19.40;82.20
39255;DHT22;24957;51.386;-2.352;2022-08-01T08:31:25;19.50;84.70
39255;DHT22;24957;51.386;-2.352;2022-08-01T08:33:50;19.70;83.10
39255;DHT22;24957;51.386;-2.352;2022-08-01T08:36:16;19.90;82.50
39255;DHT22;24957;51.386;-2.352;2022-08-01T08:38:41;19.90;82.00
39255;DHT22;24957;51.386;-2.352;2022-08-01T08:41:08;20.10;86.80
39255;DHT22;24957;51.386;-2.352;2022-08-01T08:43:34;20.50;85.20
39255;DHT22;24957;51.386;-2.352;2022-08-01T08:46:00;20.70;79.30
39255;DHT22;24957;51.386;-2.352;2022-08-01T08:48:26;20.60;79.10
39255;DHT22;24957;51.386;-2.352;2022-08-01T08:50:51;20.40;80.00
39255;DHT22;24957;51.386;-2.352;2022-08-01T08:53:17;20.50;80.10
39255;DHT22;24957;51.386;-2.352;2022-08-01T08:55:43;20.60;79.80
39255;DHT22;24957;51.386;-2.352;2022-08-01T08:58:12;20.70;79.40
39255;DHT22;24957;51.386;-2.352;2022-08-01T09:00:39;20.70;79.20
39255;DHT22;24957;51.386;-2.352;2022-08-01T09:03:04;20.60;79.80
39255;DHT22;24957;51.386;-2.352;2022-08-01T09:05:33;20.60;80.30
39255;DHT22;24957;51.386;-2.352;2022-08-01T09:07:59;20.70;79.90
39255;DHT22;24957;51.386;-2.352;2022-08-01T09:10:25;20.70;79.90
39255;DHT22;24957;51.386;-2.352;2022-08-01T09:13:10;20.80;80.20
39255;DHT22;24957;51.386;-2.352;2022-08-01T09:15:43;21.10;79.10
39255;DHT22;24957;51.386;-2.352;2022-08-01T09:18:25;21.30;79.60
39255;DHT22;24957;51.386;-2.352;2022-08-01T09:20:52;21.50;78.70
39255;DHT22;24957;51.386;-2.352;2022-08-01T09:25:58;21.80;77.50
39255;DHT22;24957;51.386;-2.352;2022-08-01T09:28:27;21.80;78.00
39255;DHT22;24957;51.386;-2.352;2022-08-01T09:30:53;21.80;77.80
39255;DHT22;24957;51.386;-2.352;2022-08-01T09:33:20;21.90;76.30
39255;DHT22;24957;51.386;-2.352;2022-08-01T09:35:46;22.00;76.40
39255;DHT22;24957;51.386;-2.352;2022-08-01T09:38:19;22.20;79.80
39255;DHT22;24957;51.386;-2.352;2022-08-01T09:40:46;22.50;75.40
39255;DHT22;24957;51.386;-2.352;2022-08-01T09:43:12;22.40;75.20
39255;DHT22;24957;51.386;-2.352;2022-08-01T09:45:38;22.50;74.30
39255;DHT22;24957;51.386;-2.352;2022-08-01T09:48:07;22.20;74.80
39255;DHT22;24957;51.386;-2.352;2022-08-01T09:50:40;22.30;78.40
39255;DHT22;24957;51.386;-2.352;2022-08-01T09:53:07;22.50;75.30
39255;DHT22;24957;51.386;-2.352;2022-08-01T09:55:32;22.40;75.30
39255;DHT22;24957;51.386;-2.352;2022-08-01T09:57:58;22.50;76.90
39255;DHT22;24957;51.386;-2.352;2022-08-01T10:00:26;22.60;76.50
39255;DHT22;24957;51.386;-2.352;2022-08-01T10:02:51;22.70;75.20
39255;DHT22;24957;51.386;-2.352;2022-08-01T10:05:17;22.90;75.20
39255;DHT22;24957;51.386;-2.352;2022-08-01T10:07:59;23.10;73.70
39255;DHT22;24957;51.386;-2.352;2022-08-01T10:10:25;22.90;73.10
39255;DHT22;24957;51.386;-2.352;2022-08-01T10:12:51;23.00;76.00
39255;DHT22;24957;51.386;-2.352;2022-08-01T10:15:17;23.00;73.20
39255;DHT22;24957;51.386;-2.352;2022-08-01T10:17:46;23.00;74.20
39255;DHT22;24957;51.386;-2.352;2022-08-01T10:20:12;23.10;74.60
39255;DHT22;24957;51.386;-2.352;2022-08-01T10:22:38;23.10;73.40
39255;DHT22;24957;51.386;-2.352;2022-08-01T10:25:04;23.10;73.50
39255;DHT22;24957;51.386;-2.352;2022-08-01T10:27:31;23.20;73.20
39255;DHT22;24957;51.386;-2.352;2022-08-01T10:29:58;23.50;72.80
39255;DHT22;24957;51.386;-2.352;2022-08-01T10:32:33;23.80;72.00
39255;DHT22;24957;51.386;-2.352;2022-08-01T10:35:00;24.20;71.40
39255;DHT22;24957;51.386;-2.352;2022-08-01T10:37:26;24.60;69.30
39255;DHT22;24957;51.386;-2.352;2022-08-01T10:39:51;24.80;67.10
39255;DHT22;24957;51.386;-2.352;2022-08-01T10:42:18;24.90;67.50
39255;DHT22;24957;51.386;-2.352;2022-08-01T10:44:44;24.80;68.20
39255;DHT22;24957;51.386;-2.352;2022-08-01T10:47:17;24.90;67.50
39255;DHT22;24957;51.386;-2.352;2022-08-01T10:52:15;24.50;68.30
39255;DHT22;24957;51.386;-2.352;2022-08-01T10:54:41;24.50;68.60
39255;DHT22;24957;51.386;-2.352;2022-08-01T10:57:06;24.40;68.60
39255;DHT22;24957;51.386;-2.352;2022-08-01T10:59:32;24.60;67.60
39255;DHT22;24957;51.386;-2.352;2022-08-01T11:02:00;24.40;67.90
39255;DHT22;24957;51.386;-2.352;2022-08-01T11:04:32;24.10;68.20
39255;DHT22;24957;51.386;-2.352;2022-08-01T11:07:07;24.10;68.50
39255;DHT22;24957;51.386;-2.352;2022-08-01T11:09:44;23.90;68.80
39255;DHT22;24957;51.386;-2.352;2022-08-01T11:12:17;23.70;69.00
39255;DHT22;24957;51.386;-2.352;2022-08-01T11:17:36;23.70;70.60
39255;DHT22;24957;51.386;-2.352;2022-08-01T11:25:18;23.40;71.70
39255;DHT22;24957;51.386;-2.352;2022-08-01T11:27:43;23.20;71.20
39255;DHT22;24957;51.386;-2.352;2022-08-01T11:32:46;23.00;71.90
39255;DHT22;24957;51.386;-2.352;2022-08-01T11:35:11;23.10;72.00
39255;DHT22;24957;51.386;-2.352;2022-08-01T11:37:39;23.20;71.60
39255;DHT22;24957;51.386;-2.352;2022-08-01T11:45:57;23.60;68.60
39255;DHT22;24957;51.386;-2.352;2022-08-01T11:48:24;23.50;68.50
39255;DHT22;24957;51.386;-2.352;2022-08-01T11:50:50;23.60;72.20
39255;DHT22;24957;51.386;-2.352;2022-08-01T11:53:17;23.60;68.70
39255;DHT22;24957;51.386;-2.352;2022-08-01T11:55:49;23.60;73.40
39255;DHT22;24957;51.386;-2.352;2022-08-01T11:58:15;23.80;69.60
39255;DHT22;24957;51.386;-2.352;2022-08-01T12:00:41;23.90;65.50
39255;DHT22;24957;51.386;-2.352;2022-08-01T12:03:07;23.90;66.80
39255;DHT22;24957;51.386;-2.352;2022-08-01T12:05:36;23.90;67.70
39255;DHT22;24957;51.386;-2.352;2022-08-01T12:08:02;23.80;65.60
39255;DHT22;24957;51.386;-2.352;2022-08-01T12:10:29;23.80;67.20
39255;DHT22;24957;51.386;-2.352;2022-08-01T12:13:02;23.90;65.70
39255;DHT22;24957;51.386;-2.352;2022-08-01T12:15:32;24.00;70.00
39255;DHT22;24957;51.386;-2.352;2022-08-01T12:17:58;24.20;65.90
39255;DHT22;24957;51.386;-2.352;2022-08-01T12:20:28;24.00;64.90
39255;DHT22;24957;51.386;-2.352;2022-08-01T12:22:54;23.90;63.30
39255;DHT22;24957;51.386;-2.352;2022-08-01T12:25:20;23.80;63.30
39255;DHT22;24957;51.386;-2.352;2022-08-01T12:27:46;23.70;64.30
39255;DHT22;24957;51.386;-2.352;2022-08-01T12:30:13;24.00;65.20
39255;DHT22;24957;51.386;-2.352;2022-08-01T12:32:46;24.30;66.10
39255;DHT22;24957;51.386;-2.352;2022-08-01T12:35:16;24.40;67.60
39255;DHT22;24957;51.386;-2.352;2022-08-01T12:37:43;24.70;62.80
39255;DHT22;24957;51.386;-2.352;2022-08-01T12:42:37;25.00;64.30
39255;DHT22;24957;51.386;-2.352;2022-08-01T12:45:04;24.90;59.10
39255;DHT22;24957;51.386;-2.352;2022-08-01T12:47:31;24.80;62.50
39255;DHT22;24957;51.386;-2.352;2022-08-01T12:49:57;24.70;60.40
39255;DHT22;24957;51.386;-2.352;2022-08-01T12:52:22;24.80;59.20
39255;DHT22;24957;51.386;-2.352;2022-08-01T12:57:27;24.80;62.30
39255;DHT22;24957;51.386;-2.352;2022-08-01T12:59:53;24.80;59.20
39255;DHT22;24957;51.386;-2.352;2022-08-01T13:02:18;25.00;57.80
39255;DHT22;24957;51.386;-2.352;2022-08-01T13:04:50;25.20;58.40
39255;DHT22;24957;51.386;-2.352;2022-08-01T13:07:16;25.10;59.80
39255;DHT22;24957;51.386;-2.352;2022-08-01T13:09:51;25.30;62.60
39255;DHT22;24957;51.386;-2.352;2022-08-01T13:12:17;25.40;59.50
39255;DHT22;24957;51.386;-2.352;2022-08-01T13:14:42;25.10;59.20
39255;DHT22;24957;51.386;-2.352;2022-08-01T13:17:08;25.00;58.90
39255;DHT22;24957;51.386;-2.352;2022-08-01T13:19:43;25.30;58.20
39255;DHT22;24957;51.386;-2.352;2022-08-01T13:22:09;25.30;60.00
39255;DHT22;24957;51.386;-2.352;2022-08-01T13:24:35;25.20;57.80
39255;DHT22;24957;51.386;-2.352;2022-08-01T13:27:02;25.20;58.90
39255;DHT22;24957;51.386;-2.352;2022-08-01T13:29:38;25.10;58.00
39255;DHT22;24957;51.386;-2.352;2022-08-01T13:32:19;25.30;58.00
39255;DHT22;24957;51.386;-2.352;2022-08-01T13:34:45;25.20;58.10
39255;DHT22;24957;51.386;-2.352;2022-08-01T13:37:10;25.20;57.20
39255;DHT22;24957;51.386;-2.352;2022-08-01T13:39:36;25.40;61.60
39255;DHT22;24957;51.386;-2.352;2022-08-01T13:42:15;25.40;59.50
39255;DHT22;24957;51.386;-2.352;2022-08-01T13:44:41;25.30;57.00
39255;DHT22;24957;51.386;-2.352;2022-08-01T13:47:07;25.40;58.80
39255;DHT22;24957;51.386;-2.352;2022-08-01T13:49:33;25.50;57.60
39255;DHT22;24957;51.386;-2.352;2022-08-01T13:51:59;25.40;58.40
39255;DHT22;24957;51.386;-2.352;2022-08-01T13:54:25;25.30;58.50
39255;DHT22;24957;51.386;-2.352;2022-08-01T13:56:51;25.20;58.20
39255;DHT22;24957;51.386;-2.352;2022-08-01T13:59:16;25.10;60.50
39255;DHT22;24957;51.386;-2.352;2022-08-01T14:01:42;25.10;57.40
39255;DHT22;24957;51.386;-2.352;2022-08-01T14:04:08;25.20;57.60
39255;DHT22;24957;51.386;-2.352;2022-08-01T14:06:33;25.00;58.50
39255;DHT22;24957;51.386;-2.352;2022-08-01T14:09:00;25.00;57.30
39255;DHT22;24957;51.386;-2.352;2022-08-01T14:11:27;25.00;58.40
39255;DHT22;24957;51.386;-2.352;2022-08-01T14:13:52;24.90;58.90
39255;DHT22;24957;51.386;-2.352;2022-08-01T14:16:18;24.90;56.70
39255;DHT22;24957;51.386;-2.352;2022-08-01T14:18:43;25.00;57.80
39255;DHT22;24957;51.386;-2.352;2022-08-01T14:21:09;24.90;57.70
39255;DHT22;24957;51.386;-2.352;2022-08-01T14:23:35;25.00;58.20
39255;DHT22;24957;51.386;-2.352;2022-08-01T14:26:00;25.20;57.60
39255;DHT22;24957;51.386;-2.352;2022-08-01T14:28:26;24.90;56.70
39255;DHT22;24957;51.386;-2.352;2022-08-01T14:30:53;24.90;57.10
39255;DHT22;24957;51.386;-2.352;2022-08-01T14:33:21;24.90;57.30
39255;DHT22;24957;51.386;-2.352;2022-08-01T14:35:46;25.00;56.70
39255;DHT22;24957;51.386;-2.352;2022-08-01T14:38:12;25.20;55.20
39255;DHT22;24957;51.386;-2.352;2022-08-01T14:40:38;25.40;54.40
39255;DHT22;24957;51.386;-2.352;2022-08-01T14:43:03;25.20;54.50
39255;DHT22;24957;51.386;-2.352;2022-08-01T14:45:29;25.10;54.80
39255;DHT22;24957;51.386;-2.352;2022-08-01T14:47:54;25.00;52.70
39255;DHT22;24957;51.386;-2.352;2022-08-01T14:50:20;25.10;51.70
39255;DHT22;24957;51.386;-2.352;2022-08-01T14:52:46;25.10;51.00
39255;DHT22;24957;51.386;-2.352;2022-08-01T14:55:12;25.10;50.70
39255;DHT22;24957;51.386;-2.352;2022-08-01T14:57:38;25.10;51.20
39255;DHT22;24957;51.386;-2.352;2022-08-01T15:00:05;25.70;49.90
39255;DHT22;24957;51.386;-2.352;2022-08-01T15:02:31;27.40;47.80
39255;DHT22;24957;51.386;-2.352;2022-08-01T15:04:57;29.20;44.80
39255;DHT22;24957;51.386;-2.352;2022-08-01T15:07:22;29.40;41.40
39255;DHT22;24957;51.386;-2.352;2022-08-01T15:09:48;29.90;39.60
39255;DHT22;24957;51.386;-2.352;2022-08-01T15:12:16;31.20;38.80
39255;DHT22;24957;51.386;-2.352;2022-08-01T15:14:42;32.50;38.00
39255;DHT22;24957;51.386;-2.352;2022-08-01T15:17:23;33.10;37.70
39255;DHT22;24957;51.386;-2.352;2022-08-01T15:19:54;32.30;38.00
39255;DHT22;24957;51.386;-2.352;2022-08-01T15:22:20;32.20;38.70
39255;DHT22;24957;51.386;-2.352;2022-08-01T15:24:49;33.20;38.60
39255;DHT22;24957;51.386;-2.352;2022-08-01T15:27:15;33.60;37.50
39255;DHT22;24957;51.386;-2.352;2022-08-01T15:29:41;33.40;37.90
39255;DHT22;24957;51.386;-2.352;2022-08-01T15:32:07;33.70;38.10
39255;DHT22;24957;51.386;-2.352;2022-08-01T15:34:33;34.60;37.60
39255;DHT22;24957;51.386;-2.352;2022-08-01T15:37:00;33.50;38.00
39255;DHT22;24957;51.386;-2.352;2022-08-01T15:39:25;32.60;39.50
39255;DHT22;24957;51.386;-2.352;2022-08-01T15:41:59;32.40;40.10
39255;DHT22;24957;51.386;-2.352;2022-08-01T15:44:25;32.60;40.20
39255;DHT22;24957;51.386;-2.352;2022-08-01T15:46:50;32.30;39.50
39255;DHT22;24957;51.386;-2.352;2022-08-01T15:49:16;32.40;40.50
39255;DHT22;24957;51.386;-2.352;2022-08-01T15:51:42;32.60;39.10
39255;DHT22;24957;51.386;-2.352;2022-08-01T15:54:08;32.50;38.50